Terminal Aerodrome Forecast
Issued by NWS Wilmington, NC

Home | Current Version | Previous Version | Text Only | Print | Product List | Glossary On
Versions: 1 2 3 4 5 6 7 8 9 10 11 12 13 14 15 16 17 18 19
120
FTUS42 KILM 291156 CCB
TAFILM
TAF COR
KILM 291156Z 2912/3012 03007KT P6SM VCSH BKN006 BKN050 BKN120
     FM291315 03008KT P6SM VCSH SCT008 SCT040 SCT120
      TEMPO 2914/2916 BKN020
     FM291600 03008KT P6SM VCSH SCT025 BKN040
      TEMPO 2917/2921 4SM TSRA SCT020 BKN035CB
     FM292300 03004KT P6SM VCSH SCT060 BKN100
     FM300600 01005KT P6SM VCSH BKN006 BKN060=

USA.gov is the U.S. government's official web portal to all federal, state and local government web resources and services.